Latest Weather Observations for Cooktown

IDQ60801

Issued at 5:02 am EST Wednesday 22 November 2017 (issued every 30 minutes, with the page automatically refreshed every 10 minutes)

About weather observations | Map of weather stations | Latest weather observations for QLD | Other Formats
Station Details ID: 031209 Name: COOKTOWN AIRPORT Lat: -15.45 Lon: 145.19 Height: 4.8 m
Data from the previous 72 hours. | See also: Recent months at Cooktown
Date/Time
EST
Temp
°C
App
Temp
°C
Dew
Point
°C
Rel
Hum
%
Delta-T
°C
Wind Press
QNH
hPa
Press
MSL
hPa
Rain since
9am
mm
Dir  Spd
km/h
Gust
km/h
Spd
kts
Gust
kts
22/05:00am 22.7 27.5 22.2 97 0.3 CALM 0 0 0 0 1008.9 - 12.0
22/04:30am 22.8 27.0 22.4 98 0.3 S 4 9 2 5 1008.7 - 12.0
22/04:00am 23.0 26.7 22.6 98 0.3 S 7 11 4 6 1008.4 - 11.8
22/03:58am 23.2 27.1 22.6 96 0.4 S 6 9 3 5 1008.4 - 11.8
22/03:30am 23.1 26.1 22.7 98 0.3 ESE 11 15 6 8 1008.2 - 11.8
22/03:13am 23.2 27.1 22.9 98 0.2 S 7 11 4 6 1008.2 - 11.8
22/03:00am 23.3 28.5 22.9 98 0.3 CALM 0 0 0 0 1008.1 1007.8 11.8
22/02:58am 23.3 28.6 23.0 98 0.2 CALM 0 0 0 0 1008.1 - 11.8
22/02:48am 23.3 28.5 22.9 98 0.3 CALM 0 0 0 0 1007.9 - 11.2
22/02:30am 23.1 27.5 22.8 98 0.2 SW 4 9 2 5 1007.9 - 11.2
22/02:12am 23.3 28.1 22.9 98 0.3 SSW 2 11 1 6 1008.1 - 11.2
22/02:00am 23.2 27.6 22.8 98 0.3 SSW 4 9 2 5 1008.3 - 11.2
22/01:30am 23.1 27.7 22.4 96 0.5 N 2 7 1 4 1008.5 - 11.0
22/01:02am 22.9 26.5 22.1 95 0.5 N 6 9 3 5 1008.5 - 11.0
22/01:00am 22.8 26.3 22.2 96 0.4 N 7 9 4 5 1008.5 - 11.0
22/12:53am 23.0 26.2 22.4 96 0.4 N 9 11 5 6 1008.5 - 11.0
22/12:30am 23.3 28.4 22.6 96 0.5 CALM 0 6 0 3 1009.0 - 10.2
22/12:00am 23.6 27.9 22.6 94 0.7 NE 4 6 2 3 1009.2 1009.0 5.6
 
Date/Time
EST
Temp
°C
App
Temp
°C
Dew
Point
°C
Rel
Hum
%
Delta-T
°C
Wind Press
QNH
hPa
Press
MSL
hPa
Rain since
9am
mm
Dir  Spd
km/h
Gust
km/h
Spd
kts
Gust
kts
21/11:30pm 23.7 26.4 22.2 91 1.0 E 11 17 6 9 1009.3 - 5.0
21/11:09pm 23.9 26.9 22.6 92 0.9 E 11 15 6 8 1009.4 - 5.0
21/11:00pm 23.9 26.9 22.7 93 0.8 E 11 15 6 8 1009.5 - 5.0
21/10:46pm 24.0 28.1 23.0 94 0.7 E 6 9 3 5 1009.7 - 5.0
21/10:34pm 23.8 27.7 22.6 93 0.8 ENE 6 9 3 5 1009.7 - 5.0
21/10:30pm 23.7 27.6 22.5 93 0.8 E 6 11 3 6 1009.8 - 5.0
21/10:19pm 23.7 26.6 22.4 92 0.9 ESE 11 17 6 9 1009.8 - 5.0
21/10:11pm 23.8 25.8 22.3 91 1.0 E 15 20 8 11 1009.7 - 4.8
21/10:00pm 24.1 27.6 22.8 92 0.9 E 9 20 5 11 1009.6 - 4.8
21/09:35pm 23.7 27.7 22.7 94 0.7 SSE 6 9 3 5 1009.6 - 4.8
21/09:30pm 24.1 28.1 23.1 94 0.7 S 7 9 4 5 1009.6 - 4.8
21/09:00pm 24.3 29.5 22.8 91 1.0 CALM 0 0 0 0 1009.4 1009.4 4.8
21/08:30pm 24.0 26.5 22.4 91 1.1 E 13 19 7 10 1009.3 - 4.8
21/08:24pm 24.0 26.9 22.5 91 1.0 E 11 17 6 9 1009.3 - 4.8
21/08:01pm 24.1 25.9 22.5 91 1.1 E 17 28 9 15 1009.4 - 2.4
21/08:00pm 24.2 26.4 22.6 91 1.1 E 15 28 8 15 1009.3 - 2.0
21/07:30pm 24.5 28.8 22.6 89 1.3 E 4 7 2 4 1008.8 - 0.6
21/07:04pm 24.4 27.4 22.0 86 1.6 E 9 15 5 8 1008.4 - 0.6
21/07:00pm 24.5 27.0 21.8 85 1.8 E 11 15 6 8 1008.4 - 0.6
21/06:53pm 24.9 26.7 21.9 83 2.0 E 15 20 8 11 1008.5 - 0.6
21/06:30pm 26.4 28.1 21.6 75 3.2 E 15 24 8 13 1008.1 - 0.0
21/06:00pm 26.3 27.3 21.7 76 3.1 E 19 22 10 12 1008.2 1008.1 0.0
21/05:30pm 26.6 27.6 21.7 74 3.3 E 19 26 10 14 1008.0 - 0.0
21/05:00pm 26.8 27.3 21.1 71 3.8 E 20 28 11 15 1007.8 - 0.0
21/04:30pm 28.0 28.8 21.7 68 4.2 E 20 26 11 14 1007.7 - 0.0
21/04:00pm 28.2 28.9 21.5 67 4.5 E 20 24 11 13 1008.2 - 0.0
21/03:30pm 28.9 29.4 21.1 62 5.2 E 20 28 11 15 1008.2 - 0.0
21/03:00pm 29.1 29.1 20.1 58 5.9 E 20 32 11 17 1008.8 1008.6 0.0
21/02:30pm 28.9 28.4 19.0 55 6.4 E 20 30 11 16 1009.1 - 0.0
21/02:00pm 27.4 26.7 19.4 61 5.2 E 22 30 12 16 1009.5 - 0.0
21/01:30pm 28.0 28.7 21.6 68 4.3 E 20 30 11 16 1009.8 - 0.0
21/01:00pm 29.3 29.5 21.4 62 5.3 E 22 32 12 17 1010.2 - 0.0
21/12:30pm 28.5 29.1 21.1 64 4.9 E 19 30 10 16 1010.9 - 0.0
21/12:00pm 28.2 28.4 20.5 63 5.1 E 20 32 11 17 1011.2 1011.1 0.0
21/11:30am 28.5 28.6 21.1 64 4.9 E 22 35 12 19 1011.3 - 0.0
21/11:00am 28.7 29.4 21.5 65 4.8 E 20 28 11 15 1011.5 - 0.0
21/10:30am 29.1 29.0 20.8 61 5.5 E 22 32 12 17 1011.4 - 0.0
21/10:00am 29.0 28.8 20.5 60 5.6 E 22 32 12 17 1011.4 - 0.0
21/09:30am 29.2 29.6 20.9 61 5.5 E 20 28 11 15 1011.5 - 0.0
21/09:00am 28.1 27.6 20.7 64 4.9 ESE 24 30 13 16 1011.6 1011.4 0.0
21/08:30am 27.3 28.2 20.8 67 4.3 E 17 26 9 14 1011.4 - 0.0
21/08:00am 27.5 28.1 21.3 69 4.1 E 20 24 11 13 1011.2 - 0.0
21/07:30am 27.6 29.0 21.8 70 3.9 E 17 24 9 13 1010.8 - 0.0
21/07:00am 27.7 30.2 22.5 73 3.5 E 13 17 7 9 1010.3 - 0.0
21/06:30am 25.0 28.1 22.2 84 1.9 SSE 9 13 5 7 1010.2 - 0.0
21/06:00am 24.9 29.2 21.9 83 2.0 SSW 2 0 1 0 1010.1 1010.0 0.0
21/05:30am 24.9 29.5 21.7 82 2.1 CALM 0 0 0 0 1009.8 - 0.0
21/05:00am 25.1 28.3 21.3 79 2.5 E 6 11 3 6 1009.6 - 0.0
21/04:30am 25.2 27.0 21.1 78 2.7 E 13 19 7 10 1009.3 - 0.0
21/04:00am 25.6 27.8 21.1 76 3.0 E 11 17 6 9 1009.5 - 0.0
21/03:30am 25.5 26.9 21.1 76 2.9 E 15 20 8 11 1009.5 - 0.0
21/03:00am 25.6 27.3 20.9 75 3.1 E 13 19 7 10 1009.9 1009.8 0.0
21/02:30am 25.8 27.2 21.1 75 3.1 E 15 20 8 11 1009.7 - 0.0
21/02:00am 25.8 27.5 20.9 74 3.2 E 13 17 7 9 1010.1 - 0.0
21/01:30am 25.7 28.8 21.5 77 2.8 ESE 7 17 4 9 1010.6 - 0.0
21/01:00am 25.4 27.4 20.8 75 3.0 E 11 17 6 9 1010.9 - 0.0
21/12:30am 25.5 27.6 20.9 75 3.0 E 11 17 6 9 1011.6 - 0.0
21/12:00am 25.7 27.1 21.0 75 3.1 E 15 20 8 11 1011.7 1011.7 0.0
 
Date/Time
EST
Temp
°C
App
Temp
°C
Dew
Point
°C
Rel
Hum
%
Delta-T
°C
Wind Press
QNH
hPa
Press
MSL
hPa
Rain since
9am
mm
Dir  Spd
km/h
Gust
km/h
Spd
kts
Gust
kts
20/11:30pm 25.5 26.8 20.9 75 3.0 E 15 20 8 11 1011.7 - 0.0
20/11:00pm 25.7 27.7 20.8 74 3.2 E 11 15 6 8 1011.7 - 0.0
20/10:30pm 25.6 26.7 20.4 73 3.4 E 15 20 8 11 1011.8 - 0.0
20/10:00pm 25.7 27.2 20.5 73 3.4 E 13 20 7 11 1012.0 - 0.0
20/09:30pm 25.9 26.6 20.4 71 3.6 E 17 22 9 12 1011.8 - 0.0
20/09:00pm 25.9 26.7 20.7 73 3.4 E 17 24 9 13 1011.8 1011.7 0.0
20/08:30pm 26.1 26.2 20.4 71 3.7 E 20 28 11 15 1011.6 - 0.0
20/08:00pm 26.1 26.9 20.6 71 3.6 ESE 17 24 9 13 1011.3 - 0.0
20/07:30pm 26.2 27.0 20.6 71 3.7 E 17 22 9 12 1011.0 - 0.0
20/07:00pm 25.9 26.6 20.4 71 3.6 E 17 22 9 12 1010.3 - 0.0
20/06:30pm 26.0 26.6 20.2 70 3.8 E 17 24 9 13 1010.2 - 0.0
20/06:00pm 26.8 26.8 19.7 65 4.6 E 19 26 10 14 1010.1 1009.9 0.0
20/05:30pm 27.4 27.8 19.9 63 4.9 E 17 26 9 14 1009.7 - 0.0
20/05:00pm 27.6 27.8 20.1 63 4.9 E 19 28 10 15 1009.8 - 0.0
20/04:30pm 28.1 27.7 20.2 62 5.2 E 22 28 12 15 1009.6 - 0.0
20/04:00pm 28.3 28.3 20.2 61 5.3 E 20 30 11 16 1009.7 - 0.0
20/03:30pm 28.3 28.5 20.2 61 5.3 E 19 28 10 15 1009.9 - 0.0
20/03:00pm 28.3 28.5 20.6 63 5.1 E 20 24 11 13 1010.1 1010.0 0.0
20/02:30pm 27.9 28.1 20.6 64 4.8 E 20 28 11 15 1010.5 - 0.0
20/02:00pm 29.2 29.2 20.9 61 5.5 ENE 22 30 12 16 1010.5 - 0.0
20/01:30pm 28.3 27.7 20.4 62 5.2 ENE 24 32 13 17 1010.9 - 0.0
20/01:00pm 29.5 28.7 20.9 60 5.7 E 26 33 14 18 1011.5 - 0.0
20/12:30pm 29.8 29.7 20.8 58 6.0 E 22 32 12 17 1011.9 - 0.0
20/12:00pm 29.2 29.2 20.2 58 5.9 E 20 30 11 16 1012.2 1012.2 0.0
20/11:30am 29.9 29.8 20.7 57 6.1 E 22 32 12 17 1012.4 - 0.0
20/11:00am 28.8 28.4 21.0 62 5.2 ENE 24 32 13 17 1012.6 - 0.0
20/10:30am 28.9 28.3 20.6 61 5.5 ENE 24 32 13 17 1012.7 - 0.0
20/10:00am 28.2 27.6 20.6 63 5.0 E 24 32 13 17 1013.0 - 0.0
20/09:30am 27.7 27.8 21.1 67 4.4 ESE 22 33 12 18 1013.0 - 0.0
20/09:00am 28.4 28.8 21.0 64 4.9 ESE 20 30 11 16 1012.9 1012.8 0.0
20/08:30am 28.3 28.6 21.6 67 4.5 E 22 32 12 17 1012.6 - 0.0
20/08:00am 27.5 27.7 21.3 69 4.1 E 22 28 12 15 1012.5 - 0.0
20/07:30am 27.2 27.9 21.5 71 3.8 ESE 20 28 11 15 1012.3 - 0.0
20/07:00am 26.9 29.2 22.0 74 3.3 ESE 13 20 7 11 1012.0 - 0.0
20/06:30am 23.7 28.5 22.2 91 1.0 CALM 0 0 0 0 1011.6 - 0.0
20/06:00am 22.9 27.4 21.5 92 0.9 CALM 0 0 0 0 1011.2 1011.1 0.0
20/05:30am 23.2 27.7 21.5 90 1.1 CALM 0 0 0 0 1011.1 - 0.0
20/05:00am 23.6 28.2 21.8 90 1.2 CALM 0 0 0 0 1010.9 - 0.0
20/04:30am 24.1 27.4 21.4 85 1.8 E 6 7 3 4 1010.5 - 0.0
20/04:00am 24.1 26.8 21.4 85 1.8 ESE 9 13 5 7 1010.1 - 0.0
20/03:30am 24.8 27.2 21.5 82 2.2 ESE 11 15 6 8 1009.8 - 0.0
20/03:00am 24.8 27.7 21.8 83 2.0 ESE 9 15 5 8 1009.8 1009.7 0.0
20/02:30am 25.0 27.1 21.7 82 2.2 ESE 13 19 7 10 1009.9 - 0.0
20/02:00am 24.7 27.6 21.7 83 2.0 ESE 9 13 5 7 1010.1 - 0.0
20/01:30am 25.0 27.5 21.7 82 2.2 E 11 15 6 8 1010.3 - 0.0
20/01:00am 25.2 27.6 21.6 80 2.4 ESE 11 20 6 11 1010.6 - 0.0
20/12:30am 25.2 27.1 21.3 79 2.6 E 13 20 7 11 1011.1 - 0.0
20/12:00am 25.1 27.5 21.6 81 2.3 E 11 15 6 8 1011.4 1011.3 0.0
 
Date/Time
EST
Temp
°C
App
Temp
°C
Dew
Point
°C
Rel
Hum
%
Delta-T
°C
Wind Press
QNH
hPa
Press
MSL
hPa
Rain since
9am
mm
Dir  Spd
km/h
Gust
km/h
Spd
kts
Gust
kts
19/11:30pm 25.1 27.9 21.5 80 2.4 E 9 13 5 7 1011.6 - 0.0
19/11:00pm 25.5 27.4 21.4 78 2.7 E 13 17 7 9 1011.6 - 0.0
19/10:30pm 25.3 27.2 21.4 79 2.6 E 13 17 7 9 1011.7 - 0.0
19/10:00pm 25.1 27.8 21.3 79 2.5 E 9 15 5 8 1011.7 - 0.0
19/09:30pm 24.8 27.6 21.6 82 2.1 ESE 9 13 5 7 1011.4 - 0.0
19/09:00pm 24.7 27.9 21.7 83 2.0 E 7 13 4 7 1011.0 1010.9 0.0
19/08:30pm 25.2 28.0 21.6 80 2.4 ESE 9 11 5 6 1010.9 - 0.0
19/08:00pm 25.3 28.1 21.5 79 2.5 ESE 9 15 5 8 1010.6 - 0.0
19/07:30pm 25.0 27.7 21.4 80 2.4 E 9 13 5 7 1010.3 - 0.0
19/07:00pm 25.7 28.4 21.3 76 2.9 ESE 9 13 5 7 1010.1 - 0.0
19/06:30pm 26.1 28.0 21.3 75 3.2 ESE 13 17 7 9 1009.8 - 0.0
19/06:00pm 26.8 28.6 21.2 71 3.7 E 13 19 7 10 1009.5 1009.2 0.0
19/05:30pm 27.0 27.6 21.0 69 4.0 E 19 24 10 13 1009.1 - 0.0
19/05:00pm 27.9 28.4 21.1 66 4.5 ESE 20 30 11 16 1009.0 - 0.0
19/04:30pm 28.3 28.7 21.7 67 4.4 E 22 30 12 16 1008.7 - 0.0
19/04:00pm 28.3 28.2 21.4 66 4.6 E 24 30 13 16 1009.1 - 0.0
19/03:30pm 28.8 28.9 21.8 66 4.7 E 24 32 13 17 1009.2 - 0.0
19/03:00pm 29.0 28.6 21.0 62 5.3 E 24 33 13 18 1009.5 1009.5 0.0
19/02:30pm 28.5 28.0 20.8 63 5.1 E 24 33 13 18 1010.0 - 0.0
19/02:00pm 29.3 29.7 21.0 61 5.5 E 20 30 11 16 1010.3 - 0.0
19/01:30pm 28.8 28.8 21.0 62 5.2 E 22 32 12 17 1010.5 - 0.0
19/01:00pm 29.6 29.8 21.4 61 5.5 ESE 22 32 12 17 1010.8 - 0.0
19/12:30pm 29.3 28.0 20.7 59 5.7 E 28 35 15 19 1011.0 - 0.0
19/12:00pm 29.6 29.5 20.7 58 5.9 ESE 22 35 12 19 1011.5 1011.5 0.0
19/11:30am 29.2 28.6 20.4 59 5.8 E 24 35 13 19 1011.7 - 0.0
19/11:00am 29.3 28.9 21.0 61 5.5 ESE 24 32 13 17 1011.8 - 0.0
19/10:30am 28.9 28.5 20.9 62 5.3 E 24 32 13 17 1012.0 - 0.0
19/10:00am 29.2 28.3 20.6 59 5.7 E 26 33 14 18 1012.0 - 0.0
19/09:30am 28.9 29.1 21.3 63 5.1 E 22 30 12 16 1012.1 - 0.0
19/09:00am 28.3 28.2 21.4 66 4.6 ESE 24 33 13 18 1012.0 1011.9 0.0
19/08:30am 28.6 28.8 21.3 64 4.9 E 22 30 12 16 1011.9 - 0.0
19/08:00am 27.8 29.3 21.3 67 4.3 SE 15 24 8 13 1011.7 - 0.0
19/07:30am 27.9 29.3 21.9 70 4.0 ESE 17 24 9 13 1011.6 - 0.0
19/07:00am 26.9 28.0 21.2 71 3.8 ESE 17 24 9 13 1011.4 - 0.0
19/06:30am 26.1 27.8 21.6 76 3.0 ESE 15 20 8 11 1010.9 - 0.0
19/06:00am 25.2 27.1 21.4 79 2.5 ESE 13 19 7 10 1010.5 1010.4 0.0
19/05:30am 25.0 27.0 21.5 81 2.3 ESE 13 19 7 10 1010.1 - 0.0

Other Formats:

Comma delimited format used in spreadsheet applications
http://www.bom.gov.au/fwo/IDQ60801/IDQ60801.95283.axf

JavaScript Object Notation format (JSON) in row-major order
http://www.bom.gov.au/fwo/IDQ60801/IDQ60801.95283.json